createdAt,value
2023-03-12T00:01:57.197Z,100723.69
2023-03-12T00:05:20.694Z,100733.25
2023-03-12T00:08:42.801Z,100739.34
2023-03-12T00:12:04.532Z,100741.13
2023-03-12T00:15:26.396Z,100748.00
2023-03-12T00:18:50.051Z,100746.16
2023-03-12T00:22:14.181Z,100745.22
2023-03-12T00:25:35.901Z,100746.16
2023-03-12T00:28:57.214Z,100758.34
2023-03-12T00:32:19.195Z,100746.00
2023-03-12T00:35:40.813Z,100741.75
2023-03-12T00:39:04.181Z,100748.47
2023-03-12T00:42:25.754Z,100750.19
2023-03-12T00:45:47.560Z,100749.91
2023-03-12T00:49:09.467Z,100771.53
2023-03-12T00:52:31.473Z,100768.78
2023-03-12T00:55:54.615Z,100770.78
2023-03-12T00:59:16.905Z,100774.16
2023-03-12T01:02:40.017Z,100777.72
2023-03-12T01:06:01.667Z,100785.34
2023-03-12T01:09:23.301Z,100777.56
2023-03-12T01:12:48.628Z,100781.03
2023-03-12T01:17:56.869Z,100788.06
2023-03-12T01:21:18.845Z,100788.75
2023-03-12T01:24:40.909Z,100796.56
2023-03-12T01:28:02.310Z,100792.09
2023-03-12T01:31:24.246Z,100794.59
2023-03-12T01:34:47.369Z,100787.63
2023-03-12T01:38:10.374Z,100795.56
2023-03-12T01:41:33.747Z,100798.13
2023-03-12T01:44:57.767Z,100791.91
2023-03-12T01:48:21.119Z,100793.66
2023-03-12T01:51:47.911Z,100799.78
2023-03-12T01:55:14.279Z,100807.81
2023-03-12T01:58:41.660Z,100806.94
2023-03-12T02:02:04.980Z,100812.34
2023-03-12T02:05:31.731Z,100820.28
2023-03-12T02:08:55.732Z,100833.47
2023-03-12T02:12:18.765Z,100830.78
2023-03-12T02:15:41.444Z,100834.41
2023-03-12T02:19:06.047Z,100827.38
2023-03-12T02:22:28.268Z,100828.28
2023-03-12T02:25:53.515Z,100821.28
2023-03-12T02:29:15.696Z,100826.38
2023-03-12T02:32:40.700Z,100825.53
2023-03-12T02:36:02.506Z,100829.16
2023-03-12T02:39:24.813Z,100830.91
2023-03-12T02:42:48.004Z,100834.41
2023-03-12T02:46:10.418Z,100835.47
2023-03-12T02:49:34.538Z,100842.56
2023-03-12T02:52:56.390Z,100845.25
2023-03-12T02:56:18.362Z,100843.63
2023-03-12T02:59:41.518Z,100844.56
2023-03-12T03:03:03.744Z,100849.09
2023-03-12T03:06:25.770Z,100846.50
2023-03-12T03:09:49.180Z,100850.19
2023-03-12T03:13:11.004Z,100843.41
2023-03-12T03:16:35.278Z,100851.50
2023-03-12T03:19:57.182Z,100859.47
2023-03-12T03:23:18.696Z,100853.53
2023-03-12T03:26:40.483Z,100865.00
2023-03-12T03:30:02.352Z,100872.09
2023-03-12T03:33:28.544Z,100877.47
2023-03-12T03:36:50.315Z,100881.16
2023-03-12T03:40:13.856Z,100889.16
2023-03-12T03:43:35.503Z,100891.84
2023-03-12T03:46:57.700Z,100899.84
2023-03-12T03:50:20.900Z,100907.84
2023-03-12T03:53:42.649Z,100912.44
2023-03-12T03:57:04.861Z,100908.97
2023-03-12T04:00:26.474Z,100911.66
2023-03-12T04:03:48.325Z,100921.41
2023-03-12T04:07:11.996Z,100925.81
2023-03-12T04:10:33.939Z,100932.03
2023-03-12T04:13:55.925Z,100928.63
2023-03-12T04:17:20.956Z,100938.25
2023-03-12T04:20:43.216Z,100933.97
2023-03-12T04:24:07.394Z,100938.41
2023-03-12T04:27:30.182Z,100937.53
2023-03-12T04:30:56.499Z,100938.41
2023-03-12T04:34:18.255Z,100949.84
2023-03-12T04:37:42.138Z,100948.16
2023-03-12T04:41:08.700Z,100942.19
2023-03-12T04:44:33.160Z,100940.50
2023-03-12T04:47:54.860Z,100952.69
2023-03-12T04:51:16.901Z,100956.25
2023-03-12T04:54:38.658Z,100959.84
2023-03-12T04:58:02.358Z,100957.31
2023-03-12T05:01:26.934Z,100960.84
2023-03-12T05:04:48.860Z,100967.91
2023-03-12T05:08:10.491Z,100971.50
2023-03-12T05:11:32.938Z,100964.50
2023-03-12T05:14:56.167Z,100973.22
2023-03-12T05:18:20.306Z,100973.28
2023-03-12T05:21:43.642Z,100972.41
2023-03-12T05:25:07.084Z,100969.88
2023-03-12T05:28:29.877Z,100976.16
2023-03-12T05:31:56.716Z,100976.09
2023-03-12T05:35:18.808Z,100971.75
2023-03-12T05:38:42.683Z,100977.91
2023-03-12T05:42:05.757Z,100973.59
2023-03-12T05:45:28.169Z,100978.88
2023-03-12T05:48:53.414Z,100968.34
2023-03-12T05:52:15.646Z,100965.72
2023-03-12T05:55:39.388Z,100969.25
2023-03-12T05:59:01.160Z,100972.72
2023-03-12T06:02:23.929Z,100980.56
2023-03-12T06:05:48.048Z,100981.50
2023-03-12T06:09:09.924Z,100991.97
2023-03-12T06:12:31.528Z,100999.00
2023-03-12T06:15:53.458Z,100998.09
2023-03-12T06:19:15.451Z,100995.41
2023-03-12T06:22:40.750Z,100991.03
2023-03-12T06:26:02.295Z,100994.44
2023-03-12T06:29:24.164Z,100997.91
2023-03-12T06:32:46.230Z,101002.16
2023-03-12T06:36:09.584Z,100998.50
2023-03-12T06:39:32.570Z,100997.53
2023-03-12T06:42:54.278Z,101006.19
2023-03-12T06:46:17.764Z,100996.56
2023-03-12T06:49:39.683Z,101010.44
2023-03-12T06:53:01.387Z,101013.91
2023-03-12T06:56:24.700Z,101018.09
2023-03-12T06:59:48.707Z,101012.66
2023-03-12T07:03:12.113Z,101022.09
2023-03-12T07:06:33.959Z,101021.94
2023-03-12T07:09:55.570Z,101019.19
2023-03-12T07:13:18.972Z,101018.13
2023-03-12T07:16:40.626Z,101015.38
2023-03-12T07:20:02.396Z,101025.63
2023-03-12T07:23:24.635Z,101025.53
2023-03-12T07:26:46.531Z,101013.97
2023-03-12T07:30:11.407Z,101023.34
2023-03-12T07:33:33.947Z,101017.97
2023-03-12T07:36:56.388Z,101031.03
2023-03-12T07:40:18.271Z,101025.47
2023-03-12T07:43:39.749Z,101029.72
2023-03-12T07:47:16.544Z,101038.25
2023-03-12T07:50:44.472Z,101036.09
2023-03-12T07:54:06.308Z,101036.63
2023-03-12T07:57:27.818Z,101032.88
2023-03-12T08:00:49.787Z,101036.44
2023-03-12T08:04:13.469Z,101043.13
2023-03-12T08:07:35.659Z,101046.41
2023-03-12T08:10:57.861Z,101044.28
2023-03-12T08:14:19.741Z,101042.09
2023-03-12T08:17:41.668Z,101047.88
2023-03-12T08:21:04.962Z,101043.34
2023-03-12T08:24:26.777Z,101043.94
2023-03-12T08:27:48.429Z,101040.22
2023-03-12T08:31:10.645Z,101054.75
2023-03-12T08:34:32.547Z,101056.06
2023-03-12T08:37:57.031Z,101065.31
2023-03-12T08:41:18.972Z,101048.47
2023-03-12T08:44:41.372Z,101053.44
2023-03-12T08:48:03.289Z,101058.50
2023-03-12T08:51:24.824Z,101060.00
2023-03-12T08:54:48.061Z,101058.84
2023-03-12T08:58:09.640Z,101061.13
2023-03-12T09:01:31.301Z,101054.63
2023-03-12T09:04:53.359Z,101056.13
2023-03-12T09:08:15.375Z,101057.69
2023-03-12T09:11:41.018Z,101061.66
2023-03-12T09:15:04.506Z,101048.97
2023-03-12T09:18:26.481Z,101062.44
2023-03-12T09:21:48.037Z,101049.72
2023-03-12T09:25:11.900Z,101046.66
2023-03-12T09:28:34.927Z,101052.53
2023-03-12T09:31:56.725Z,101057.66
2023-03-12T09:35:18.931Z,101057.41
2023-03-12T09:38:40.657Z,101050.28
2023-03-12T09:42:04.672Z,101050.97
2023-03-12T09:45:32.088Z,101054.31
2023-03-12T09:48:57.661Z,101054.94
2023-03-12T09:52:25.741Z,101049.41
2023-03-12T09:55:50.541Z,101045.56
2023-03-12T09:59:13.544Z,101044.34
2023-03-12T10:03:13.627Z,101050.22
2023-03-12T10:06:45.197Z,101034.19
2023-03-12T10:10:22.170Z,101035.66
2023-03-12T10:13:58.544Z,101041.53
2023-03-12T10:17:44.940Z,101036.88
2023-03-12T10:21:18.806Z,101047.78
2023-03-12T10:24:54.687Z,101035.19
2023-03-12T10:28:19.664Z,101034.78
2023-03-12T10:31:49.584Z,101026.53
2023-03-12T10:35:17.054Z,101021.75
2023-03-12T10:38:39.737Z,101014.28
2023-03-12T10:42:03.008Z,101015.63
2023-03-12T10:45:32.944Z,101014.69
2023-03-12T10:49:24.452Z,101012.66
2023-03-12T10:52:48.233Z,101003.63
2023-03-12T10:56:11.937Z,101010.34
2023-03-12T10:59:37.000Z,101009.13
2023-03-12T11:03:00.854Z,101010.41
2023-03-12T11:06:24.767Z,101002.03
2023-03-12T11:09:46.899Z,101004.59
2023-03-12T11:13:23.284Z,100999.22
2023-03-12T11:16:46.929Z,100998.97
2023-03-12T11:20:25.979Z,100994.16
2023-03-12T11:24:07.250Z,100991.25
2023-03-12T11:27:40.341Z,100984.75
2023-03-12T11:31:03.220Z,100987.25
2023-03-12T11:34:30.225Z,100982.72
2023-03-12T11:38:02.320Z,100978.94
2023-03-12T11:41:37.684Z,100967.25
2023-03-12T11:45:07.116Z,100951.97
2023-03-12T11:48:41.906Z,100943.78
2023-03-12T11:52:11.235Z,100943.28
2023-03-12T11:55:45.171Z,100950.00
2023-03-12T11:59:32.311Z,100955.00
2023-03-12T12:03:23.709Z,100947.66
2023-03-12T12:06:58.429Z,100929.59
2023-03-12T12:10:30.358Z,100908.91
2023-03-12T12:14:07.600Z,100905.06
2023-03-12T12:17:41.711Z,100906.47
2023-03-12T12:21:37.133Z,100903.47
2023-03-12T12:25:31.105Z,100895.22
2023-03-12T12:29:13.432Z,100889.66
2023-03-12T12:32:49.488Z,100867.13
2023-03-12T12:36:11.951Z,100865.03
2023-03-12T12:39:37.248Z,100850.56
2023-03-12T12:43:17.745Z,100849.31
2023-03-12T12:46:43.506Z,100848.06
2023-03-12T12:50:06.075Z,100855.78
2023-03-12T12:53:31.424Z,100859.09
2023-03-12T12:56:58.988Z,100838.88
2023-03-12T13:00:44.592Z,100837.72
2023-03-12T13:04:12.083Z,100824.91
2023-03-12T13:07:37.877Z,100808.72
2023-03-12T13:11:16.142Z,100810.31
2023-03-12T13:14:47.534Z,100816.34
2023-03-12T13:18:22.052Z,100817.19
2023-03-12T13:21:59.325Z,100818.88
2023-03-12T13:25:32.990Z,100817.72
2023-03-12T13:29:12.204Z,100818.28
2023-03-12T13:32:57.552Z,100802.06
2023-03-12T13:36:27.119Z,100807.16
2023-03-12T13:39:48.729Z,100801.09
2023-03-12T13:43:14.215Z,100802.72
2023-03-12T13:46:40.654Z,100810.53
2023-03-12T13:50:06.639Z,100808.63
2023-03-12T13:53:36.089Z,100782.88
2023-03-12T13:57:01.204Z,100766.91
2023-03-12T14:00:29.118Z,100772.94
2023-03-12T14:03:55.379Z,100786.09
2023-03-12T14:07:41.203Z,100793.25
2023-03-12T14:11:21.961Z,100797.19
2023-03-12T14:15:09.578Z,100789.47
2023-03-12T14:18:33.793Z,100782.47
2023-03-12T14:21:58.505Z,100785.00
2023-03-12T14:25:30.573Z,100769.13
2023-03-12T14:29:00.176Z,100748.81
2023-03-12T14:32:25.301Z,100761.53
2023-03-12T14:35:52.363Z,100759.41
2023-03-12T14:39:26.439Z,100761.09
2023-03-12T14:42:48.602Z,100753.03
2023-03-12T14:46:17.416Z,100763.00
2023-03-12T14:49:42.520Z,100754.75
2023-03-12T14:53:13.736Z,100752.50
2023-03-12T14:56:35.981Z,100738.44
2023-03-12T14:59:59.351Z,100728.69
2023-03-12T15:03:22.464Z,100730.59
2023-03-12T15:06:46.748Z,100724.56
2023-03-12T15:10:21.153Z,100722.34
2023-03-12T15:13:43.269Z,100712.47
2023-03-12T15:17:06.373Z,100713.78
2023-03-12T15:20:31.494Z,100710.47
2023-03-12T15:23:54.121Z,100705.19
2023-03-12T15:27:32.835Z,100690.47
2023-03-12T15:31:11.804Z,100704.34
2023-03-12T15:34:35.844Z,100705.81
2023-03-12T15:37:59.296Z,100709.69
2023-03-12T15:41:23.759Z,100702.84
2023-03-12T15:44:47.784Z,100695.00
2023-03-12T15:48:23.477Z,100705.78
2023-03-12T15:52:00.426Z,100693.63
2023-03-12T15:55:27.240Z,100679.84
2023-03-12T15:59:00.735Z,100676.53
2023-03-12T16:02:37.605Z,100672.22
2023-03-12T16:05:59.458Z,100675.81
2023-03-12T16:09:24.573Z,100666.28
2023-03-12T16:12:50.161Z,100663.63
2023-03-12T16:16:14.379Z,100664.69
2023-03-12T16:19:36.233Z,100653.47
2023-03-12T16:22:58.314Z,100657.06
2023-03-12T16:26:20.092Z,100650.09
2023-03-12T16:29:43.211Z,100653.75
2023-03-12T16:33:09.168Z,100648.59
2023-03-12T16:36:31.208Z,100644.34
2023-03-12T16:39:53.023Z,100635.59
2023-03-12T16:43:18.672Z,100640.34
2023-03-12T16:46:41.547Z,100633.66
2023-03-12T16:50:03.748Z,100623.19
2023-03-12T16:53:26.504Z,100630.78
2023-03-12T16:56:50.909Z,100636.38
2023-03-12T17:00:15.885Z,100640.19
2023-03-12T17:03:43.680Z,100637.72
2023-03-12T17:07:05.483Z,100646.69
2023-03-12T17:10:28.101Z,100662.63
2023-03-12T17:13:53.072Z,100653.34
2023-03-12T17:17:15.147Z,100650.97
2023-03-12T17:20:40.031Z,100649.47
2023-03-12T17:24:01.932Z,100644.47
2023-03-12T17:27:23.752Z,100644.88
2023-03-12T17:30:47.359Z,100626.81
2023-03-12T17:34:09.135Z,100635.88
2023-03-12T17:37:32.252Z,100635.31
2023-03-12T17:40:54.236Z,100624.97
2023-03-12T17:44:16.027Z,100611.97
2023-03-12T17:47:38.330Z,100612.13
2023-03-12T17:51:00.105Z,100614.03
2023-03-12T17:54:23.151Z,100620.25
2023-03-12T17:57:44.726Z,100630.06
2023-03-12T18:01:06.354Z,100630.16
2023-03-12T18:04:28.288Z,100624.22
2023-03-12T18:07:51.118Z,100610.28
2023-03-12T18:11:14.408Z,100615.56
2023-03-12T18:14:36.144Z,100605.19
2023-03-12T18:17:58.849Z,100593.91
2023-03-12T18:21:20.892Z,100581.66
2023-03-12T18:24:43.040Z,100578.06
2023-03-12T18:28:06.483Z,100564.22
2023-03-12T18:31:28.634Z,100570.44
2023-03-12T18:34:50.300Z,100563.47
2023-03-12T18:38:11.784Z,100562.81
2023-03-12T18:41:33.832Z,100560.28
2023-03-12T18:44:56.848Z,100565.53
2023-03-12T18:48:18.798Z,100558.56
2023-03-12T18:51:40.520Z,100564.78
2023-03-12T18:55:02.381Z,100552.66
2023-03-12T18:58:25.343Z,100551.91
2023-03-12T19:01:48.774Z,100550.97
2023-03-12T19:05:11.061Z,100546.66
2023-03-12T19:08:33.116Z,100542.19
2023-03-12T19:11:55.020Z,100539.69
2023-03-12T19:15:16.961Z,100543.34
2023-03-12T19:18:40.920Z,100537.31
2023-03-12T19:22:03.627Z,100529.59
2023-03-12T19:25:25.284Z,100534.97
2023-03-12T19:28:47.296Z,100527.06
2023-03-12T19:32:09.242Z,100521.97
2023-03-12T19:35:32.522Z,100512.38
2023-03-12T19:38:54.497Z,100513.31
2023-03-12T19:42:16.425Z,100510.88
2023-03-12T19:45:38.738Z,100507.41
2023-03-12T19:49:00.259Z,100514.44
2023-03-12T19:52:23.587Z,100509.19
2023-03-12T19:55:47.903Z,100510.88
2023-03-12T19:59:09.430Z,100512.56
2023-03-12T20:02:31.351Z,100507.22
2023-03-12T20:05:53.011Z,100515.13
2023-03-12T20:09:16.357Z,100498.25
2023-03-12T20:12:38.281Z,100490.44
2023-03-12T20:16:00.089Z,100496.53
2023-03-12T20:19:21.662Z,100494.78
2023-03-12T20:22:43.556Z,100491.19
2023-03-12T20:26:06.514Z,100486.75
2023-03-12T20:29:28.524Z,100486.75
2023-03-12T20:32:50.233Z,100489.19
2023-03-12T20:36:14.025Z,100483.91
2023-03-12T20:39:35.643Z,100486.47
2023-03-12T20:42:59.063Z,100474.09
2023-03-12T20:46:21.021Z,100468.00
2023-03-12T20:49:43.041Z,100482.75
2023-03-12T20:53:05.008Z,100472.06
2023-03-12T20:56:27.596Z,100461.50
2023-03-12T20:59:50.941Z,100469.50
2023-03-12T21:03:13.971Z,100457.06
2023-03-12T21:06:35.585Z,100464.69
2023-03-12T21:09:57.784Z,100454.00
2023-03-12T21:13:21.270Z,100459.19
2023-03-12T21:16:44.748Z,100455.63
2023-03-12T21:20:09.918Z,100452.88
2023-03-12T21:23:31.691Z,100457.09
2023-03-12T21:26:53.426Z,100459.53
2023-03-12T21:30:15.658Z,100459.34
2023-03-12T21:33:39.148Z,100455.75
2023-03-12T21:37:01.048Z,100448.50
2023-03-12T21:40:22.937Z,100445.53
2023-03-12T21:43:45.222Z,100443.66
2023-03-12T21:47:06.807Z,100446.00
2023-03-12T21:50:30.096Z,100439.69
2023-03-12T21:53:54.747Z,100436.81
2023-03-12T21:57:16.246Z,100430.47
2023-03-12T22:00:38.255Z,100433.66
2023-03-12T22:04:01.066Z,100436.81
2023-03-12T22:07:24.119Z,100438.44
2023-03-12T22:10:45.955Z,100447.09
2023-03-12T22:14:07.682Z,100438.88
2023-03-12T22:17:29.802Z,100441.38
2023-03-12T22:20:52.843Z,100441.81
2023-03-12T22:24:16.056Z,100443.31
2023-03-12T22:27:37.824Z,100454.59
2023-03-12T22:31:00.423Z,100438.56
2023-03-12T22:34:22.037Z,100431.28
2023-03-12T22:37:45.467Z,100434.44
2023-03-12T22:41:16.684Z,100428.00
2023-03-12T22:44:41.243Z,100429.47
2023-03-12T22:48:03.256Z,100423.03
2023-03-12T22:51:26.060Z,100423.66
2023-03-12T22:54:47.876Z,100419.84
2023-03-12T22:58:11.672Z,100411.63
2023-03-12T23:01:33.559Z,100412.34
2023-03-12T23:04:55.338Z,100405.78
2023-03-12T23:08:17.137Z,100386.22
2023-03-12T23:11:41.065Z,100380.72
2023-03-12T23:15:04.824Z,100396.13
2023-03-12T23:18:26.621Z,100401.19
2023-03-12T23:21:48.270Z,100400.16
2023-03-12T23:25:10.621Z,100399.06
2023-03-12T23:28:33.147Z,100384.72
2023-03-12T23:31:56.725Z,100390.09
2023-03-12T23:35:18.758Z,100389.91
2023-03-12T23:38:40.640Z,100383.44
2023-03-12T23:42:02.294Z,100393.69
2023-03-12T23:45:24.247Z,100380.25
2023-03-12T23:48:47.505Z,100382.66
2023-03-12T23:52:09.078Z,100392.16
2023-03-12T23:55:30.894Z,100385.06
2023-03-12T23:58:52.871Z,100394.47
